sensor_id;sensor_type;location;lat;lon;timestamp;temperature;humidity
6210;DHT22;3138;52.550;13.148;2024-03-25T00:01:52;5.30;99.90
6210;DHT22;3138;52.550;13.148;2024-03-25T00:04:18;5.40;99.90
6210;DHT22;3138;52.550;13.148;2024-03-25T00:06:46;5.40;99.90
6210;DHT22;3138;52.550;13.148;2024-03-25T00:09:13;5.40;99.90
6210;DHT22;3138;52.550;13.148;2024-03-25T00:11:40;5.40;99.90
6210;DHT22;3138;52.550;13.148;2024-03-25T00:14:06;5.40;99.90
6210;DHT22;3138;52.550;13.148;2024-03-25T00:16:34;5.40;99.90
6210;DHT22;3138;52.550;13.148;2024-03-25T00:19:00;5.40;99.90
6210;DHT22;3138;52.550;13.148;2024-03-25T00:21:27;5.40;99.90
6210;DHT22;3138;52.550;13.148;2024-03-25T00:23:53;5.40;99.90
6210;DHT22;3138;52.550;13.148;2024-03-25T00:26:23;5.40;99.90
6210;DHT22;3138;52.550;13.148;2024-03-25T00:28:49;5.40;99.90
6210;DHT22;3138;52.550;13.148;2024-03-25T00:31:15;5.40;99.90
6210;DHT22;3138;52.550;13.148;2024-03-25T00:33:41;5.40;99.90
6210;DHT22;3138;52.550;13.148;2024-03-25T00:36:08;5.40;99.90
6210;DHT22;3138;52.550;13.148;2024-03-25T00:38:34;5.40;99.90
6210;DHT22;3138;52.550;13.148;2024-03-25T00:41:01;5.40;99.90
6210;DHT22;3138;52.550;13.148;2024-03-25T00:43:28;5.50;99.90
6210;DHT22;3138;52.550;13.148;2024-03-25T00:45:55;5.50;99.90
6210;DHT22;3138;52.550;13.148;2024-03-25T00:48:22;5.40;99.90
6210;DHT22;3138;52.550;13.148;2024-03-25T00:50:49;5.50;99.90
6210;DHT22;3138;52.550;13.148;2024-03-25T00:53:14;5.50;99.90
6210;DHT22;3138;52.550;13.148;2024-03-25T00:55:41;5.50;99.90
6210;DHT22;3138;52.550;13.148;2024-03-25T00:58:07;5.50;99.90
6210;DHT22;3138;52.550;13.148;2024-03-25T01:00:35;5.50;99.90
6210;DHT22;3138;52.550;13.148;2024-03-25T01:03:01;5.50;99.90
6210;DHT22;3138;52.550;13.148;2024-03-25T01:05:28;5.50;99.90
6210;DHT22;3138;52.550;13.148;2024-03-25T01:07:54;5.60;99.90
6210;DHT22;3138;52.550;13.148;2024-03-25T01:10:21;5.60;99.90
6210;DHT22;3138;52.550;13.148;2024-03-25T01:12:47;5.70;99.90
6210;DHT22;3138;52.550;13.148;2024-03-25T01:15:13;5.60;99.90
6210;DHT22;3138;52.550;13.148;2024-03-25T01:17:41;5.60;99.90
6210;DHT22;3138;52.550;13.148;2024-03-25T01:20:09;5.50;99.90
6210;DHT22;3138;52.550;13.148;2024-03-25T01:22:35;5.60;99.90
6210;DHT22;3138;52.550;13.148;2024-03-25T01:25:02;5.60;99.90
6210;DHT22;3138;52.550;13.148;2024-03-25T01:27:27;5.50;99.90
6210;DHT22;3138;52.550;13.148;2024-03-25T01:29:54;5.40;99.90
6210;DHT22;3138;52.550;13.148;2024-03-25T01:32:20;5.40;99.90
6210;DHT22;3138;52.550;13.148;2024-03-25T01:34:48;5.30;99.90
6210;DHT22;3138;52.550;13.148;2024-03-25T01:37:14;5.20;99.90
6210;DHT22;3138;52.550;13.148;2024-03-25T01:39:41;5.20;99.90
6210;DHT22;3138;52.550;13.148;2024-03-25T01:42:07;5.10;99.90
6210;DHT22;3138;52.550;13.148;2024-03-25T01:44:34;5.00;99.90
6210;DHT22;3138;52.550;13.148;2024-03-25T01:47:00;5.10;99.90
6210;DHT22;3138;52.550;13.148;2024-03-25T01:49:27;5.10;99.90
6210;DHT22;3138;52.550;13.148;2024-03-25T01:51:54;5.10;99.90
6210;DHT22;3138;52.550;13.148;2024-03-25T01:54:22;5.20;99.90
6210;DHT22;3138;52.550;13.148;2024-03-25T01:56:48;5.10;99.90
6210;DHT22;3138;52.550;13.148;2024-03-25T01:59:16;5.20;99.90
6210;DHT22;3138;52.550;13.148;2024-03-25T02:01:43;5.20;99.90
6210;DHT22;3138;52.550;13.148;2024-03-25T02:04:10;5.20;99.90
6210;DHT22;3138;52.550;13.148;2024-03-25T02:06:39;5.20;99.90
6210;DHT22;3138;52.550;13.148;2024-03-25T02:09:09;5.20;99.90
6210;DHT22;3138;52.550;13.148;2024-03-25T02:11:36;5.20;99.90
6210;DHT22;3138;52.550;13.148;2024-03-25T02:14:03;5.20;99.90
6210;DHT22;3138;52.550;13.148;2024-03-25T02:16:29;5.10;99.90
6210;DHT22;3138;52.550;13.148;2024-03-25T02:18:55;5.20;99.90
6210;DHT22;3138;52.550;13.148;2024-03-25T02:21:21;5.20;99.90
6210;DHT22;3138;52.550;13.148;2024-03-25T02:23:50;5.20;99.90
6210;DHT22;3138;52.550;13.148;2024-03-25T02:26:19;5.20;99.90
6210;DHT22;3138;52.550;13.148;2024-03-25T02:28:46;5.20;99.90
6210;DHT22;3138;52.550;13.148;2024-03-25T02:31:12;5.20;99.90
6210;DHT22;3138;52.550;13.148;2024-03-25T02:33:38;5.20;99.90
6210;DHT22;3138;52.550;13.148;2024-03-25T02:36:05;5.20;99.90
6210;DHT22;3138;52.550;13.148;2024-03-25T02:38:32;5.20;99.90
6210;DHT22;3138;52.550;13.148;2024-03-25T02:40:58;5.20;99.90
6210;DHT22;3138;52.550;13.148;2024-03-25T02:43:26;5.30;99.90
6210;DHT22;3138;52.550;13.148;2024-03-25T02:45:52;5.20;99.90
6210;DHT22;3138;52.550;13.148;2024-03-25T02:48:19;5.20;99.90
6210;DHT22;3138;52.550;13.148;2024-03-25T02:50:45;5.20;99.90
6210;DHT22;3138;52.550;13.148;2024-03-25T02:53:12;5.20;99.90
6210;DHT22;3138;52.550;13.148;2024-03-25T02:55:37;5.20;99.90
6210;DHT22;3138;52.550;13.148;2024-03-25T02:58:04;5.20;99.90
6210;DHT22;3138;52.550;13.148;2024-03-25T03:00:31;5.20;99.90
6210;DHT22;3138;52.550;13.148;2024-03-25T03:02:58;5.20;99.90
6210;DHT22;3138;52.550;13.148;2024-03-25T03:05:24;5.10;99.90
6210;DHT22;3138;52.550;13.148;2024-03-25T03:07:51;5.10;99.90
6210;DHT22;3138;52.550;13.148;2024-03-25T03:10:17;5.10;99.90
6210;DHT22;3138;52.550;13.148;2024-03-25T03:12:44;5.10;99.90
6210;DHT22;3138;52.550;13.148;2024-03-25T03:15:10;5.10;99.90
6210;DHT22;3138;52.550;13.148;2024-03-25T03:17:38;5.10;99.90
6210;DHT22;3138;52.550;13.148;2024-03-25T03:20:05;5.10;99.90
6210;DHT22;3138;52.550;13.148;2024-03-25T03:22:32;5.10;99.90
6210;DHT22;3138;52.550;13.148;2024-03-25T03:24:58;5.10;99.90
6210;DHT22;3138;52.550;13.148;2024-03-25T03:27:25;5.10;99.90
6210;DHT22;3138;52.550;13.148;2024-03-25T03:29:51;5.10;99.90
6210;DHT22;3138;52.550;13.148;2024-03-25T03:32:18;5.10;99.90
6210;DHT22;3138;52.550;13.148;2024-03-25T03:34:45;5.10;99.90
6210;DHT22;3138;52.550;13.148;2024-03-25T03:37:12;5.10;99.90
6210;DHT22;3138;52.550;13.148;2024-03-25T03:39:38;5.10;99.90
6210;DHT22;3138;52.550;13.148;2024-03-25T03:42:04;5.10;99.90
6210;DHT22;3138;52.550;13.148;2024-03-25T03:44:30;5.10;99.90
6210;DHT22;3138;52.550;13.148;2024-03-25T03:46:57;5.10;99.90
6210;DHT22;3138;52.550;13.148;2024-03-25T03:49:23;5.10;99.90
6210;DHT22;3138;52.550;13.148;2024-03-25T03:51:51;5.10;99.90
6210;DHT22;3138;52.550;13.148;2024-03-25T03:54:17;5.10;99.90
6210;DHT22;3138;52.550;13.148;2024-03-25T03:56:44;5.10;99.90
6210;DHT22;3138;52.550;13.148;2024-03-25T03:59:10;5.10;99.90
6210;DHT22;3138;52.550;13.148;2024-03-25T04:01:37;5.00;99.90
6210;DHT22;3138;52.550;13.148;2024-03-25T04:04:03;5.10;99.90
6210;DHT22;3138;52.550;13.148;2024-03-25T04:06:30;5.10;99.90
6210;DHT22;3138;52.550;13.148;2024-03-25T04:08:57;5.10;99.90
6210;DHT22;3138;52.550;13.148;2024-03-25T04:11:24;5.10;99.90
6210;DHT22;3138;52.550;13.148;2024-03-25T04:13:50;5.10;99.90
6210;DHT22;3138;52.550;13.148;2024-03-25T04:16:17;5.20;99.90
6210;DHT22;3138;52.550;13.148;2024-03-25T04:18:43;5.10;99.90
6210;DHT22;3138;52.550;13.148;2024-03-25T04:21:11;5.20;99.90
6210;DHT22;3138;52.550;13.148;2024-03-25T04:23:37;5.20;99.90
6210;DHT22;3138;52.550;13.148;2024-03-25T04:26:06;5.20;99.90
6210;DHT22;3138;52.550;13.148;2024-03-25T04:28:34;5.20;99.90
6210;DHT22;3138;52.550;13.148;2024-03-25T04:31:01;5.20;99.90
6210;DHT22;3138;52.550;13.148;2024-03-25T04:33:26;5.20;99.90
6210;DHT22;3138;52.550;13.148;2024-03-25T04:35:53;5.20;99.90
6210;DHT22;3138;52.550;13.148;2024-03-25T04:38:20;5.20;99.90
6210;DHT22;3138;52.550;13.148;2024-03-25T04:40:46;5.20;99.90
6210;DHT22;3138;52.550;13.148;2024-03-25T04:43:13;5.20;99.90
6210;DHT22;3138;52.550;13.148;2024-03-25T04:45:39;5.20;99.90
6210;DHT22;3138;52.550;13.148;2024-03-25T04:48:06;5.20;99.90
6210;DHT22;3138;52.550;13.148;2024-03-25T04:50:32;5.20;99.90
6210;DHT22;3138;52.550;13.148;2024-03-25T04:52:58;5.20;99.90
6210;DHT22;3138;52.550;13.148;2024-03-25T04:55:24;5.20;99.90
6210;DHT22;3138;52.550;13.148;2024-03-25T04:57:50;5.20;99.90
6210;DHT22;3138;52.550;13.148;2024-03-25T05:00:18;5.20;99.90
6210;DHT22;3138;52.550;13.148;2024-03-25T05:02:44;5.10;99.90
6210;DHT22;3138;52.550;13.148;2024-03-25T05:05:10;5.10;99.90
6210;DHT22;3138;52.550;13.148;2024-03-25T05:07:36;5.10;99.90
6210;DHT22;3138;52.550;13.148;2024-03-25T05:10:02;5.10;99.90
6210;DHT22;3138;52.550;13.148;2024-03-25T05:12:28;5.10;99.90
6210;DHT22;3138;52.550;13.148;2024-03-25T05:14:54;5.10;99.90
6210;DHT22;3138;52.550;13.148;2024-03-25T05:17:21;5.10;99.90
6210;DHT22;3138;52.550;13.148;2024-03-25T05:19:47;5.10;99.90
6210;DHT22;3138;52.550;13.148;2024-03-25T05:22:13;5.10;99.90
6210;DHT22;3138;52.550;13.148;2024-03-25T05:24:39;5.10;99.90
6210;DHT22;3138;52.550;13.148;2024-03-25T05:27:05;5.10;99.90
6210;DHT22;3138;52.550;13.148;2024-03-25T05:29:31;5.20;99.90
6210;DHT22;3138;52.550;13.148;2024-03-25T05:31:58;5.20;99.90
6210;DHT22;3138;52.550;13.148;2024-03-25T05:34:27;5.20;99.90
6210;DHT22;3138;52.550;13.148;2024-03-25T05:36:54;5.20;99.90
6210;DHT22;3138;52.550;13.148;2024-03-25T05:39:20;5.20;99.90
6210;DHT22;3138;52.550;13.148;2024-03-25T05:41:46;5.20;99.90
6210;DHT22;3138;52.550;13.148;2024-03-25T05:44:13;5.20;99.90
6210;DHT22;3138;52.550;13.148;2024-03-25T05:46:39;5.20;99.90
6210;DHT22;3138;52.550;13.148;2024-03-25T05:49:05;5.30;99.90
6210;DHT22;3138;52.550;13.148;2024-03-25T05:51:33;5.30;99.90
6210;DHT22;3138;52.550;13.148;2024-03-25T05:53:59;5.20;99.90
6210;DHT22;3138;52.550;13.148;2024-03-25T05:56:25;5.20;99.90
6210;DHT22;3138;52.550;13.148;2024-03-25T05:58:51;5.20;99.90
6210;DHT22;3138;52.550;13.148;2024-03-25T06:01:16;5.20;99.90
6210;DHT22;3138;52.550;13.148;2024-03-25T06:03:42;5.20;99.90
6210;DHT22;3138;52.550;13.148;2024-03-25T06:06:08;5.20;99.90
6210;DHT22;3138;52.550;13.148;2024-03-25T06:08:35;5.30;99.90
6210;DHT22;3138;52.550;13.148;2024-03-25T06:11:02;5.30;99.90
6210;DHT22;3138;52.550;13.148;2024-03-25T06:13:28;5.30;99.90
6210;DHT22;3138;52.550;13.148;2024-03-25T06:15:53;5.30;99.90
6210;DHT22;3138;52.550;13.148;2024-03-25T06:18:19;5.30;99.90
6210;DHT22;3138;52.550;13.148;2024-03-25T06:20:45;5.30;99.90
6210;DHT22;3138;52.550;13.148;2024-03-25T06:23:21;5.30;99.90
6210;DHT22;3138;52.550;13.148;2024-03-25T06:25:49;5.30;99.90
6210;DHT22;3138;52.550;13.148;2024-03-25T06:28:15;5.30;99.90
6210;DHT22;3138;52.550;13.148;2024-03-25T06:30:41;5.40;99.90
6210;DHT22;3138;52.550;13.148;2024-03-25T06:33:25;5.30;99.90
6210;DHT22;3138;52.550;13.148;2024-03-25T06:36:09;5.40;99.90
6210;DHT22;3138;52.550;13.148;2024-03-25T06:38:35;5.40;99.90
6210;DHT22;3138;52.550;13.148;2024-03-25T06:41:03;5.40;99.90
6210;DHT22;3138;52.550;13.148;2024-03-25T06:43:29;5.40;99.90
6210;DHT22;3138;52.550;13.148;2024-03-25T06:45:54;5.40;99.90
6210;DHT22;3138;52.550;13.148;2024-03-25T06:48:20;5.40;99.90
6210;DHT22;3138;52.550;13.148;2024-03-25T06:50:52;5.40;99.90
6210;DHT22;3138;52.550;13.148;2024-03-25T06:53:19;5.30;99.90
6210;DHT22;3138;52.550;13.148;2024-03-25T06:55:51;5.30;99.90
6210;DHT22;3138;52.550;13.148;2024-03-25T06:58:19;5.30;99.90
6210;DHT22;3138;52.550;13.148;2024-03-25T07:00:45;5.30;99.90
6210;DHT22;3138;52.550;13.148;2024-03-25T07:03:11;5.40;99.90
6210;DHT22;3138;52.550;13.148;2024-03-25T07:05:37;5.40;99.90
6210;DHT22;3138;52.550;13.148;2024-03-25T07:08:03;5.40;99.90
6210;DHT22;3138;52.550;13.148;2024-03-25T07:10:29;5.50;99.90
6210;DHT22;3138;52.550;13.148;2024-03-25T07:12:55;5.50;99.90
6210;DHT22;3138;52.550;13.148;2024-03-25T07:15:22;5.50;99.90
6210;DHT22;3138;52.550;13.148;2024-03-25T07:17:48;5.50;99.90
6210;DHT22;3138;52.550;13.148;2024-03-25T07:20:14;5.50;99.90
6210;DHT22;3138;52.550;13.148;2024-03-25T07:22:40;5.50;99.90
6210;DHT22;3138;52.550;13.148;2024-03-25T07:25:07;5.50;99.90
6210;DHT22;3138;52.550;13.148;2024-03-25T07:27:33;5.50;99.90
6210;DHT22;3138;52.550;13.148;2024-03-25T07:29:58;5.40;99.90
6210;DHT22;3138;52.550;13.148;2024-03-25T07:32:26;5.40;99.90
6210;DHT22;3138;52.550;13.148;2024-03-25T07:34:52;5.40;99.90
6210;DHT22;3138;52.550;13.148;2024-03-25T07:37:17;5.50;99.90
6210;DHT22;3138;52.550;13.148;2024-03-25T07:39:46;5.40;99.90
6210;DHT22;3138;52.550;13.148;2024-03-25T07:42:11;5.50;99.90
6210;DHT22;3138;52.550;13.148;2024-03-25T07:44:37;5.50;99.90
6210;DHT22;3138;52.550;13.148;2024-03-25T07:47:03;5.60;99.90
6210;DHT22;3138;52.550;13.148;2024-03-25T07:49:31;5.60;99.90
6210;DHT22;3138;52.550;13.148;2024-03-25T07:51:57;5.60;99.90
6210;DHT22;3138;52.550;13.148;2024-03-25T07:54:23;5.60;99.90
6210;DHT22;3138;52.550;13.148;2024-03-25T07:56:49;5.60;99.90
6210;DHT22;3138;52.550;13.148;2024-03-25T07:59:15;5.60;99.90
6210;DHT22;3138;52.550;13.148;2024-03-25T08:01:41;5.70;99.90
6210;DHT22;3138;52.550;13.148;2024-03-25T08:04:06;5.80;99.90
6210;DHT22;3138;52.550;13.148;2024-03-25T08:06:34;6.00;99.90
6210;DHT22;3138;52.550;13.148;2024-03-25T08:09:00;6.20;99.90
6210;DHT22;3138;52.550;13.148;2024-03-25T08:11:25;6.30;99.90
6210;DHT22;3138;52.550;13.148;2024-03-25T08:13:52;6.30;99.90
6210;DHT22;3138;52.550;13.148;2024-03-25T08:16:18;6.20;99.90
6210;DHT22;3138;52.550;13.148;2024-03-25T08:18:44;6.40;99.90
6210;DHT22;3138;52.550;13.148;2024-03-25T08:21:10;6.60;99.90
6210;DHT22;3138;52.550;13.148;2024-03-25T08:23:37;6.70;99.90
6210;DHT22;3138;52.550;13.148;2024-03-25T08:26:03;6.60;99.90
6210;DHT22;3138;52.550;13.148;2024-03-25T08:28:29;6.80;99.90
6210;DHT22;3138;52.550;13.148;2024-03-25T08:30:55;6.60;99.90
6210;DHT22;3138;52.550;13.148;2024-03-25T08:33:21;6.60;99.90
6210;DHT22;3138;52.550;13.148;2024-03-25T08:35:47;6.70;99.90
6210;DHT22;3138;52.550;13.148;2024-03-25T08:38:13;6.80;99.90
6210;DHT22;3138;52.550;13.148;2024-03-25T08:40:40;6.70;99.90
6210;DHT22;3138;52.550;13.148;2024-03-25T08:43:06;6.80;99.90
6210;DHT22;3138;52.550;13.148;2024-03-25T08:45:32;7.00;99.90
6210;DHT22;3138;52.550;13.148;2024-03-25T08:47:58;6.90;99.90
6210;DHT22;3138;52.550;13.148;2024-03-25T08:50:24;7.00;99.90
6210;DHT22;3138;52.550;13.148;2024-03-25T08:52:50;7.20;99.90
6210;DHT22;3138;52.550;13.148;2024-03-25T08:55:16;7.30;99.90
6210;DHT22;3138;52.550;13.148;2024-03-25T08:57:43;7.10;99.90
6210;DHT22;3138;52.550;13.148;2024-03-25T09:00:10;7.00;99.90
6210;DHT22;3138;52.550;13.148;2024-03-25T09:02:36;6.90;99.90
6210;DHT22;3138;52.550;13.148;2024-03-25T09:05:02;6.90;99.90
6210;DHT22;3138;52.550;13.148;2024-03-25T09:07:28;6.80;99.90
6210;DHT22;3138;52.550;13.148;2024-03-25T09:09:54;7.00;99.90
6210;DHT22;3138;52.550;13.148;2024-03-25T09:12:39;6.80;99.90
6210;DHT22;3138;52.550;13.148;2024-03-25T09:15:06;6.70;99.90
6210;DHT22;3138;52.550;13.148;2024-03-25T09:17:32;6.90;99.90
6210;DHT22;3138;52.550;13.148;2024-03-25T09:19:58;7.00;99.90
6210;DHT22;3138;52.550;13.148;2024-03-25T09:22:24;7.00;99.90
6210;DHT22;3138;52.550;13.148;2024-03-25T09:24:50;7.30;99.90
6210;DHT22;3138;52.550;13.148;2024-03-25T09:27:16;7.40;99.90
6210;DHT22;3138;52.550;13.148;2024-03-25T09:29:42;7.50;99.90
6210;DHT22;3138;52.550;13.148;2024-03-25T09:32:09;7.50;99.90
6210;DHT22;3138;52.550;13.148;2024-03-25T09:34:35;7.70;99.90
6210;DHT22;3138;52.550;13.148;2024-03-25T09:37:01;7.90;99.90
6210;DHT22;3138;52.550;13.148;2024-03-25T09:39:27;8.10;99.90
6210;DHT22;3138;52.550;13.148;2024-03-25T09:41:55;8.20;99.90
6210;DHT22;3138;52.550;13.148;2024-03-25T09:44:22;8.10;99.90
6210;DHT22;3138;52.550;13.148;2024-03-25T09:46:50;8.10;99.90
6210;DHT22;3138;52.550;13.148;2024-03-25T09:49:17;8.20;99.90
6210;DHT22;3138;52.550;13.148;2024-03-25T09:51:44;8.30;99.90
6210;DHT22;3138;52.550;13.148;2024-03-25T09:54:10;8.20;99.90
6210;DHT22;3138;52.550;13.148;2024-03-25T09:56:37;8.30;99.90
6210;DHT22;3138;52.550;13.148;2024-03-25T09:59:04;8.40;99.90
6210;DHT22;3138;52.550;13.148;2024-03-25T10:01:30;8.40;99.90
6210;DHT22;3138;52.550;13.148;2024-03-25T10:03:56;8.70;99.90
6210;DHT22;3138;52.550;13.148;2024-03-25T10:06:23;8.80;99.90
6210;DHT22;3138;52.550;13.148;2024-03-25T10:08:53;8.60;99.90
6210;DHT22;3138;52.550;13.148;2024-03-25T10:11:19;8.70;99.90
6210;DHT22;3138;52.550;13.148;2024-03-25T10:13:45;8.40;99.90
6210;DHT22;3138;52.550;13.148;2024-03-25T10:16:11;8.50;99.90
6210;DHT22;3138;52.550;13.148;2024-03-25T10:18:37;8.30;99.90
6210;DHT22;3138;52.550;13.148;2024-03-25T10:21:03;8.10;99.90
6210;DHT22;3138;52.550;13.148;2024-03-25T10:23:31;8.20;99.90
6210;DHT22;3138;52.550;13.148;2024-03-25T10:25:57;8.00;99.90
6210;DHT22;3138;52.550;13.148;2024-03-25T10:28:22;8.00;99.90
6210;DHT22;3138;52.550;13.148;2024-03-25T10:30:48;8.10;99.90
6210;DHT22;3138;52.550;13.148;2024-03-25T10:33:14;8.20;99.90
6210;DHT22;3138;52.550;13.148;2024-03-25T10:35:40;8.20;99.90
6210;DHT22;3138;52.550;13.148;2024-03-25T10:38:09;8.20;99.90
6210;DHT22;3138;52.550;13.148;2024-03-25T10:40:37;8.50;99.90
6210;DHT22;3138;52.550;13.148;2024-03-25T10:43:05;8.20;99.90
6210;DHT22;3138;52.550;13.148;2024-03-25T10:45:34;8.40;99.90
6210;DHT22;3138;52.550;13.148;2024-03-25T10:48:03;8.50;99.90
6210;DHT22;3138;52.550;13.148;2024-03-25T10:50:30;8.60;99.90
6210;DHT22;3138;52.550;13.148;2024-03-25T10:52:58;8.60;99.90
6210;DHT22;3138;52.550;13.148;2024-03-25T10:55:25;8.60;99.90
6210;DHT22;3138;52.550;13.148;2024-03-25T10:57:54;8.70;99.90
6210;DHT22;3138;52.550;13.148;2024-03-25T11:00:22;8.70;99.90
6210;DHT22;3138;52.550;13.148;2024-03-25T11:02:48;8.80;99.90
6210;DHT22;3138;52.550;13.148;2024-03-25T11:05:15;8.90;99.90
6210;DHT22;3138;52.550;13.148;2024-03-25T11:07:41;8.90;99.90
6210;DHT22;3138;52.550;13.148;2024-03-25T11:10:08;8.60;99.90
6210;DHT22;3138;52.550;13.148;2024-03-25T11:12:35;8.70;99.90
6210;DHT22;3138;52.550;13.148;2024-03-25T11:15:03;8.70;99.90
6210;DHT22;3138;52.550;13.148;2024-03-25T11:17:30;8.60;99.90
6210;DHT22;3138;52.550;13.148;2024-03-25T11:20:07;8.90;99.90
6210;DHT22;3138;52.550;13.148;2024-03-25T11:22:33;8.80;99.90
6210;DHT22;3138;52.550;13.148;2024-03-25T11:25:05;9.10;99.90
6210;DHT22;3138;52.550;13.148;2024-03-25T11:27:33;9.40;99.90
6210;DHT22;3138;52.550;13.148;2024-03-25T11:29:59;9.40;99.90
6210;DHT22;3138;52.550;13.148;2024-03-25T11:32:27;9.30;99.90
6210;DHT22;3138;52.550;13.148;2024-03-25T11:34:53;9.20;99.90
6210;DHT22;3138;52.550;13.148;2024-03-25T11:37:19;9.00;99.90
6210;DHT22;3138;52.550;13.148;2024-03-25T11:39:45;9.30;99.90
6210;DHT22;3138;52.550;13.148;2024-03-25T11:42:12;9.40;99.90
6210;DHT22;3138;52.550;13.148;2024-03-25T11:44:39;9.70;99.90
6210;DHT22;3138;52.550;13.148;2024-03-25T11:47:05;10.30;99.90
6210;DHT22;3138;52.550;13.148;2024-03-25T11:49:33;10.20;99.90
6210;DHT22;3138;52.550;13.148;2024-03-25T11:51:59;9.90;99.90
6210;DHT22;3138;52.550;13.148;2024-03-25T11:54:27;9.80;99.90
6210;DHT22;3138;52.550;13.148;2024-03-25T11:56:54;9.70;99.90
6210;DHT22;3138;52.550;13.148;2024-03-25T11:59:20;10.20;99.90
6210;DHT22;3138;52.550;13.148;2024-03-25T12:01:46;9.90;99.90
6210;DHT22;3138;52.550;13.148;2024-03-25T12:04:15;9.60;99.90
6210;DHT22;3138;52.550;13.148;2024-03-25T12:06:43;9.50;99.90
6210;DHT22;3138;52.550;13.148;2024-03-25T12:09:09;9.40;99.90
6210;DHT22;3138;52.550;13.148;2024-03-25T12:11:54;9.40;99.90
6210;DHT22;3138;52.550;13.148;2024-03-25T12:14:20;9.20;99.90
6210;DHT22;3138;52.550;13.148;2024-03-25T12:16:46;9.10;99.90
6210;DHT22;3138;52.550;13.148;2024-03-25T12:19:12;9.00;99.90
6210;DHT22;3138;52.550;13.148;2024-03-25T12:21:37;8.90;99.90
6210;DHT22;3138;52.550;13.148;2024-03-25T12:24:06;8.70;99.90
6210;DHT22;3138;52.550;13.148;2024-03-25T12:26:32;8.80;99.90
6210;DHT22;3138;52.550;13.148;2024-03-25T12:28:58;8.90;99.90
6210;DHT22;3138;52.550;13.148;2024-03-25T12:31:24;9.30;99.90
6210;DHT22;3138;52.550;13.148;2024-03-25T12:33:50;9.50;99.90
6210;DHT22;3138;52.550;13.148;2024-03-25T12:36:16;9.70;99.90
6210;DHT22;3138;52.550;13.148;2024-03-25T12:38:43;9.90;99.90
6210;DHT22;3138;52.550;13.148;2024-03-25T12:41:11;9.90;99.90
6210;DHT22;3138;52.550;13.148;2024-03-25T12:43:43;10.00;99.90
6210;DHT22;3138;52.550;13.148;2024-03-25T12:46:09;9.70;99.90
6210;DHT22;3138;52.550;13.148;2024-03-25T12:48:35;9.70;99.90
6210;DHT22;3138;52.550;13.148;2024-03-25T12:51:01;9.70;99.90
6210;DHT22;3138;52.550;13.148;2024-03-25T12:53:27;9.70;99.90
6210;DHT22;3138;52.550;13.148;2024-03-25T12:55:53;9.80;99.90
6210;DHT22;3138;52.550;13.148;2024-03-25T12:58:21;9.80;99.90
6210;DHT22;3138;52.550;13.148;2024-03-25T13:00:47;9.80;99.90
6210;DHT22;3138;52.550;13.148;2024-03-25T13:03:13;9.90;99.90
6210;DHT22;3138;52.550;13.148;2024-03-25T13:05:40;9.80;99.90
6210;DHT22;3138;52.550;13.148;2024-03-25T13:08:06;9.90;99.90
6210;DHT22;3138;52.550;13.148;2024-03-25T13:10:32;9.90;99.90
6210;DHT22;3138;52.550;13.148;2024-03-25T13:13:01;10.00;99.90
6210;DHT22;3138;52.550;13.148;2024-03-25T13:15:28;10.10;99.90
6210;DHT22;3138;52.550;13.148;2024-03-25T13:17:54;10.00;99.90
6210;DHT22;3138;52.550;13.148;2024-03-25T13:20:20;9.80;99.90
6210;DHT22;3138;52.550;13.148;2024-03-25T13:22:46;10.00;99.90
6210;DHT22;3138;52.550;13.148;2024-03-25T13:25:12;10.10;99.90
6210;DHT22;3138;52.550;13.148;2024-03-25T13:27:38;9.90;99.90
6210;DHT22;3138;52.550;13.148;2024-03-25T13:30:05;9.90;99.90
6210;DHT22;3138;52.550;13.148;2024-03-25T13:32:33;9.90;99.90
6210;DHT22;3138;52.550;13.148;2024-03-25T13:34:59;10.00;99.90
6210;DHT22;3138;52.550;13.148;2024-03-25T13:37:24;10.20;99.90
6210;DHT22;3138;52.550;13.148;2024-03-25T13:39:50;10.30;99.90
6210;DHT22;3138;52.550;13.148;2024-03-25T13:42:16;10.10;99.90
6210;DHT22;3138;52.550;13.148;2024-03-25T13:44:42;10.10;99.90
6210;DHT22;3138;52.550;13.148;2024-03-25T13:47:08;10.20;99.90
6210;DHT22;3138;52.550;13.148;2024-03-25T13:49:35;10.00;99.90
6210;DHT22;3138;52.550;13.148;2024-03-25T13:52:03;10.00;99.90
6210;DHT22;3138;52.550;13.148;2024-03-25T13:54:29;10.00;99.90
6210;DHT22;3138;52.550;13.148;2024-03-25T13:56:55;9.80;99.90
6210;DHT22;3138;52.550;13.148;2024-03-25T13:59:21;9.90;99.90
6210;DHT22;3138;52.550;13.148;2024-03-25T14:01:47;9.80;99.90
6210;DHT22;3138;52.550;13.148;2024-03-25T14:04:12;9.60;99.90
6210;DHT22;3138;52.550;13.148;2024-03-25T14:06:40;9.70;99.90
6210;DHT22;3138;52.550;13.148;2024-03-25T14:09:06;9.40;99.90
6210;DHT22;3138;52.550;13.148;2024-03-25T14:11:32;9.40;99.90
6210;DHT22;3138;52.550;13.148;2024-03-25T14:13:58;9.20;99.90
6210;DHT22;3138;52.550;13.148;2024-03-25T14:16:24;9.30;99.90
6210;DHT22;3138;52.550;13.148;2024-03-25T14:18:50;9.30;99.90
6210;DHT22;3138;52.550;13.148;2024-03-25T14:21:16;9.30;99.90
6210;DHT22;3138;52.550;13.148;2024-03-25T14:23:43;9.50;99.90
6210;DHT22;3138;52.550;13.148;2024-03-25T14:26:09;9.40;99.90
6210;DHT22;3138;52.550;13.148;2024-03-25T14:28:35;9.80;99.90
6210;DHT22;3138;52.550;13.148;2024-03-25T14:31:01;9.80;99.90
6210;DHT22;3138;52.550;13.148;2024-03-25T14:33:27;10.00;99.90
6210;DHT22;3138;52.550;13.148;2024-03-25T14:35:53;10.20;99.90
6210;DHT22;3138;52.550;13.148;2024-03-25T14:38:19;10.20;99.90
6210;DHT22;3138;52.550;13.148;2024-03-25T14:40:48;10.10;99.90
6210;DHT22;3138;52.550;13.148;2024-03-25T14:43:14;9.80;99.90
6210;DHT22;3138;52.550;13.148;2024-03-25T14:45:40;9.70;99.90
6210;DHT22;3138;52.550;13.148;2024-03-25T14:48:06;9.30;99.90
6210;DHT22;3138;52.550;13.148;2024-03-25T14:50:32;9.00;99.90
6210;DHT22;3138;52.550;13.148;2024-03-25T14:52:58;8.70;99.90
6210;DHT22;3138;52.550;13.148;2024-03-25T14:55:24;8.30;99.90
6210;DHT22;3138;52.550;13.148;2024-03-25T14:57:51;8.00;99.90
6210;DHT22;3138;52.550;13.148;2024-03-25T15:00:18;8.00;99.90
6210;DHT22;3138;52.550;13.148;2024-03-25T15:02:44;8.00;99.90
6210;DHT22;3138;52.550;13.148;2024-03-25T15:05:10;8.00;99.90
6210;DHT22;3138;52.550;13.148;2024-03-25T15:07:35;8.00;99.90
6210;DHT22;3138;52.550;13.148;2024-03-25T15:10:02;8.10;99.90
6210;DHT22;3138;52.550;13.148;2024-03-25T15:12:28;8.10;99.90
6210;DHT22;3138;52.550;13.148;2024-03-25T15:14:55;8.10;99.90
6210;DHT22;3138;52.550;13.148;2024-03-25T15:17:21;8.30;99.90
6210;DHT22;3138;52.550;13.148;2024-03-25T15:19:47;8.30;99.90
6210;DHT22;3138;52.550;13.148;2024-03-25T15:22:13;8.20;99.90
6210;DHT22;3138;52.550;13.148;2024-03-25T15:24:39;8.30;99.90
6210;DHT22;3138;52.550;13.148;2024-03-25T15:27:05;8.30;99.90
6210;DHT22;3138;52.550;13.148;2024-03-25T15:29:31;8.30;99.90
6210;DHT22;3138;52.550;13.148;2024-03-25T15:31:58;8.10;99.90
6210;DHT22;3138;52.550;13.148;2024-03-25T15:34:24;8.20;99.90
6210;DHT22;3138;52.550;13.148;2024-03-25T15:36:50;8.20;99.90
6210;DHT22;3138;52.550;13.148;2024-03-25T15:39:15;8.20;99.90
6210;DHT22;3138;52.550;13.148;2024-03-25T15:41:41;8.20;99.90
6210;DHT22;3138;52.550;13.148;2024-03-25T15:44:07;8.10;99.90
6210;DHT22;3138;52.550;13.148;2024-03-25T15:46:33;8.00;99.90
6210;DHT22;3138;52.550;13.148;2024-03-25T15:49:00;8.00;99.90
6210;DHT22;3138;52.550;13.148;2024-03-25T15:51:26;8.00;99.90
6210;DHT22;3138;52.550;13.148;2024-03-25T15:53:52;8.00;99.90
6210;DHT22;3138;52.550;13.148;2024-03-25T15:56:19;8.10;99.90